createdAt,value
2022-09-17T00:01:01.818Z,99287.47
2022-09-17T00:03:52.533Z,99299.19
2022-09-17T00:06:42.407Z,99290.16
2022-09-17T00:09:31.529Z,99290.97
2022-09-17T00:12:19.987Z,99295.50
2022-09-17T00:15:15.409Z,99297.13
2022-09-17T00:18:03.823Z,99296.53
2022-09-17T00:20:52.293Z,99294.44
2022-09-17T00:23:42.133Z,99299.78
2022-09-17T00:26:31.834Z,99293.28
2022-09-17T00:29:20.383Z,99300.94
2022-09-17T00:32:09.686Z,99304.84
2022-09-17T00:34:58.101Z,99300.56
2022-09-17T00:37:46.570Z,99303.22
2022-09-17T00:40:37.263Z,99305.47
2022-09-17T00:43:41.912Z,99304.16
2022-09-17T00:46:35.192Z,99311.72
2022-09-17T00:49:28.012Z,99303.31
2022-09-17T00:52:20.229Z,99308.56
2022-09-17T00:55:14.047Z,99297.19
2022-09-17T00:58:05.693Z,99303.31
2022-09-17T01:00:54.227Z,99296.16
2022-09-17T01:03:42.821Z,99294.72
2022-09-17T01:06:34.582Z,99293.09
2022-09-17T01:09:32.926Z,99298.75
2022-09-17T01:12:54.216Z,99292.16
2022-09-17T01:15:49.607Z,99297.72
2022-09-17T01:18:48.964Z,99296.34
2022-09-17T01:21:49.724Z,99294.69
2022-09-17T01:24:47.696Z,99290.16
2022-09-17T01:28:22.067Z,99292.84
2022-09-17T01:31:21.804Z,99293.66
2022-09-17T01:34:16.771Z,99296.16
2022-09-17T01:37:06.647Z,99282.25
2022-09-17T01:40:00.852Z,99287.56
2022-09-17T01:42:54.210Z,99299.44
2022-09-17T01:45:46.669Z,99302.72
2022-09-17T01:48:38.545Z,99299.88
2022-09-17T01:51:29.176Z,99303.38
2022-09-17T01:54:21.005Z,99310.09
2022-09-17T01:57:11.883Z,99311.81
2022-09-17T02:00:02.980Z,99318.88
2022-09-17T02:02:54.185Z,99314.72
2022-09-17T02:05:46.250Z,99320.28
2022-09-17T02:08:38.951Z,99307.19
2022-09-17T02:11:27.656Z,99308.81
2022-09-17T02:14:19.320Z,99314.00
2022-09-17T02:17:12.474Z,99313.09
2022-09-17T02:20:02.140Z,99317.25
2022-09-17T02:22:54.302Z,99322.25
2022-09-17T02:25:46.845Z,99314.44
2022-09-17T02:28:40.253Z,99323.50
2022-09-17T02:31:28.765Z,99309.09
2022-09-17T02:34:17.883Z,99299.84
2022-09-17T02:37:06.930Z,99303.31
2022-09-17T02:39:57.410Z,99302.84
2022-09-17T02:42:59.223Z,99299.19
2022-09-17T02:45:55.253Z,99309.94
2022-09-17T02:48:59.994Z,99309.09
2022-09-17T02:51:56.585Z,99293.91
2022-09-17T02:54:52.447Z,99299.59
2022-09-17T02:57:47.602Z,99293.56
2022-09-17T03:00:36.246Z,99299.75
2022-09-17T03:03:29.145Z,99302.59
2022-09-17T03:06:18.125Z,99303.00
2022-09-17T03:09:06.635Z,99307.53
2022-09-17T03:11:55.027Z,99304.22
2022-09-17T03:14:45.015Z,99290.88
2022-09-17T03:17:33.485Z,99293.09
2022-09-17T03:20:21.901Z,99288.22
2022-09-17T03:23:10.464Z,99299.94
2022-09-17T03:25:59.457Z,99310.72
2022-09-17T03:28:48.204Z,99316.53
2022-09-17T03:31:38.123Z,99309.97
2022-09-17T03:34:26.534Z,99321.09
2022-09-17T03:37:15.015Z,99323.16
2022-09-17T03:40:04.060Z,99324.34
2022-09-17T03:42:53.586Z,99322.13
2022-09-17T03:45:42.051Z,99319.47
2022-09-17T03:48:37.021Z,99313.09
2022-09-17T03:51:25.441Z,99318.22
2022-09-17T03:54:15.171Z,99321.09
2022-09-17T03:57:03.572Z,99322.72
2022-09-17T03:59:52.052Z,99328.72
2022-09-17T04:02:40.838Z,99331.38
2022-09-17T04:05:30.697Z,99327.91
2022-09-17T04:08:19.344Z,99330.59
2022-09-17T04:11:08.562Z,99325.63
2022-09-17T04:13:57.067Z,99332.59
2022-09-17T04:16:45.510Z,99325.13
2022-09-17T04:19:34.321Z,99332.47
2022-09-17T04:22:24.344Z,99327.91
2022-09-17T04:25:12.854Z,99333.19
2022-09-17T04:28:03.762Z,99316.50
2022-09-17T04:30:52.394Z,99317.53
2022-09-17T04:33:40.858Z,99321.25
2022-09-17T04:36:29.706Z,99333.09
2022-09-17T04:39:19.607Z,99326.03
2022-09-17T04:42:08.377Z,99328.94
2022-09-17T04:44:57.963Z,99332.94
2022-09-17T04:47:46.495Z,99332.03
2022-09-17T04:50:34.961Z,99330.31
2022-09-17T04:53:25.747Z,99330.91
2022-09-17T04:56:15.536Z,99329.06
2022-09-17T04:59:04.236Z,99331.47
2022-09-17T05:01:54.189Z,99337.66
2022-09-17T05:04:42.656Z,99338.44
2022-09-17T05:07:31.781Z,99334.97
2022-09-17T05:10:22.522Z,99334.25
2022-09-17T05:13:12.332Z,99345.78
2022-09-17T05:16:00.997Z,99340.09
2022-09-17T05:18:51.618Z,99335.09
2022-09-17T05:21:40.140Z,99345.78
2022-09-17T05:24:28.616Z,99342.31
2022-09-17T05:27:17.187Z,99351.94
2022-09-17T05:30:08.599Z,99347.66
2022-09-17T05:33:01.594Z,99351.94
2022-09-17T05:35:50.411Z,99351.47
2022-09-17T05:38:39.277Z,99352.53
2022-09-17T05:41:27.769Z,99351.47
2022-09-17T05:44:18.188Z,99355.19
2022-09-17T05:47:08.266Z,99345.69
2022-09-17T05:49:56.862Z,99348.97
2022-09-17T05:52:45.248Z,99347.25
2022-09-17T05:55:34.903Z,99352.81
2022-09-17T05:58:23.643Z,99347.69
2022-09-17T06:01:17.068Z,99352.22
2022-09-17T06:04:06.890Z,99344.88
2022-09-17T06:06:55.309Z,99346.50
2022-09-17T06:09:44.139Z,99342.00
2022-09-17T06:12:35.442Z,99349.84
2022-09-17T06:15:23.892Z,99353.56
2022-09-17T06:18:14.474Z,99354.81
2022-09-17T06:21:05.560Z,99359.75
2022-09-17T06:23:54.238Z,99362.63
2022-09-17T06:26:42.641Z,99362.03
2022-09-17T06:29:31.133Z,99365.13
2022-09-17T06:32:19.607Z,99357.75
2022-09-17T06:35:09.294Z,99360.25
2022-09-17T06:37:59.281Z,99366.03
2022-09-17T06:40:52.349Z,99364.88
2022-09-17T06:43:40.820Z,99356.19
2022-09-17T06:46:29.291Z,99357.91
2022-09-17T06:49:17.867Z,99357.28
2022-09-17T06:52:06.656Z,99362.03
2022-09-17T06:54:57.528Z,99360.41
2022-09-17T06:57:46.209Z,99355.75
2022-09-17T07:00:36.005Z,99359.25
2022-09-17T07:03:24.476Z,99360.28
2022-09-17T07:06:13.520Z,99364.13
2022-09-17T07:09:02.223Z,99364.13
2022-09-17T07:11:54.417Z,99360.41
2022-09-17T07:14:42.840Z,99356.31
2022-09-17T07:17:31.478Z,99368.66
2022-09-17T07:20:19.914Z,99360.41
2022-09-17T07:23:08.705Z,99370.63
2022-09-17T07:25:59.467Z,99376.81
2022-09-17T07:28:49.435Z,99380.13
2022-09-17T07:31:38.918Z,99372.72
2022-09-17T07:34:28.098Z,99379.09
2022-09-17T07:37:16.595Z,99388.97
2022-09-17T07:40:06.489Z,99385.03
2022-09-17T07:42:54.942Z,99391.19
2022-09-17T07:45:44.700Z,99395.28
2022-09-17T07:48:33.799Z,99400.63
2022-09-17T07:51:24.030Z,99400.00
2022-09-17T07:54:12.462Z,99404.28
2022-09-17T07:57:00.960Z,99405.50
2022-09-17T07:59:49.470Z,99409.63
2022-09-17T08:02:39.323Z,99411.88
2022-09-17T08:05:28.522Z,99419.91
2022-09-17T08:08:21.150Z,99424.66
2022-09-17T08:11:12.330Z,99424.78
2022-09-17T08:14:00.946Z,99435.91
2022-09-17T08:16:49.555Z,99438.00
2022-09-17T08:19:39.347Z,99435.09
2022-09-17T08:22:28.185Z,99436.34
2022-09-17T08:25:16.761Z,99434.28
2022-09-17T08:28:05.187Z,99435.09
2022-09-17T08:30:54.224Z,99440.41
2022-09-17T08:33:43.140Z,99440.66
2022-09-17T08:36:32.931Z,99441.91
2022-09-17T08:39:21.323Z,99449.69
2022-09-17T08:42:14.261Z,99459.19
2022-09-17T08:45:05.863Z,99472.53
2022-09-17T08:47:56.377Z,99467.19
2022-09-17T08:50:46.980Z,99463.94
2022-09-17T08:53:43.666Z,99462.28
2022-09-17T08:56:34.232Z,99474.41
2022-09-17T08:59:26.925Z,99468.81
2022-09-17T09:02:25.676Z,99468.81
2022-09-17T09:05:17.075Z,99467.19
2022-09-17T09:08:08.616Z,99466.81
2022-09-17T09:11:02.164Z,99467.63
2022-09-17T09:13:53.203Z,99466.00
2022-09-17T09:16:45.137Z,99464.75
2022-09-17T09:19:43.119Z,99456.97
2022-09-17T09:22:50.886Z,99458.59
2022-09-17T09:25:44.311Z,99461.47
2022-09-17T09:28:40.843Z,99461.72
2022-09-17T09:31:51.709Z,99468.22
2022-09-17T09:34:41.042Z,99468.88
2022-09-17T09:37:34.124Z,99465.59
2022-09-17T09:40:30.232Z,99466.84
2022-09-17T09:43:21.859Z,99471.38
2022-09-17T09:46:32.358Z,99482.06
2022-09-17T09:49:30.841Z,99490.84
2022-09-17T09:52:25.755Z,99490.47
2022-09-17T09:55:40.566Z,99480.38
2022-09-17T09:58:33.624Z,99480.31
2022-09-17T10:01:24.653Z,99471.66
2022-09-17T10:04:18.447Z,99468.09
2022-09-17T10:07:08.488Z,99469.44
2022-09-17T10:10:09.855Z,99467.53
2022-09-17T10:13:08.547Z,99481.38
2022-09-17T10:15:57.602Z,99498.81
2022-09-17T10:18:48.342Z,99485.63
2022-09-17T10:21:38.042Z,99491.41
2022-09-17T10:24:28.905Z,99491.03
2022-09-17T10:27:20.139Z,99492.28
2022-09-17T10:30:17.014Z,99498.66
2022-09-17T10:33:27.633Z,99496.00
2022-09-17T10:36:17.422Z,99486.34
2022-09-17T10:39:21.737Z,99488.56
2022-09-17T10:42:15.392Z,99478.47
2022-09-17T10:45:03.931Z,99477.81
2022-09-17T10:47:53.017Z,99467.94
2022-09-17T10:50:41.514Z,99475.72
2022-09-17T10:53:32.735Z,99474.00
2022-09-17T10:56:24.642Z,99471.22
2022-09-17T10:59:27.131Z,99483.53
2022-09-17T11:02:47.666Z,99481.06
2022-09-17T11:05:43.439Z,99481.31
2022-09-17T11:08:36.455Z,99470.03
2022-09-17T11:11:33.757Z,99475.00
2022-09-17T11:14:38.024Z,99465.94
2022-09-17T11:17:37.002Z,99464.69
2022-09-17T11:20:34.530Z,99469.66
2022-09-17T11:23:36.190Z,99453.47
2022-09-17T11:26:32.423Z,99450.00
2022-09-17T11:29:39.187Z,99457.78
2022-09-17T11:32:44.505Z,99460.22
2022-09-17T11:35:35.184Z,99458.59
2022-09-17T11:38:26.598Z,99461.06
2022-09-17T11:41:18.092Z,99475.81
2022-09-17T11:44:10.297Z,99490.19
2022-09-17T11:47:01.577Z,99479.09
2022-09-17T11:49:53.621Z,99498.22
2022-09-17T11:52:46.191Z,99512.03
2022-09-17T11:55:38.587Z,99509.56
2022-09-17T11:58:34.236Z,99491.69
2022-09-17T12:01:32.026Z,99485.31
2022-09-17T12:04:43.867Z,99480.56
2022-09-17T12:07:38.013Z,99493.91
2022-09-17T12:10:43.057Z,99497.63
2022-09-17T12:13:36.922Z,99500.09
2022-09-17T12:16:27.729Z,99495.34
2022-09-17T12:19:19.903Z,99495.53
2022-09-17T12:22:11.737Z,99502.31
2022-09-17T12:25:02.086Z,99504.13
2022-09-17T12:27:55.234Z,99489.78
2022-09-17T12:30:49.134Z,99486.50
2022-09-17T12:33:39.506Z,99470.03
2022-09-17T12:36:33.501Z,99460.53
2022-09-17T12:40:03.461Z,99464.63
2022-09-17T12:43:06.410Z,99455.78
2022-09-17T12:46:09.351Z,99454.34
2022-09-17T12:49:08.355Z,99448.94
2022-09-17T12:51:59.103Z,99447.75
2022-09-17T12:54:59.382Z,99440.19
2022-09-17T12:57:53.663Z,99441.81
2022-09-17T13:00:44.417Z,99428.09
2022-09-17T13:03:36.524Z,99431.00
2022-09-17T13:06:55.278Z,99438.41
2022-09-17T13:10:04.863Z,99424.00
2022-09-17T13:12:57.406Z,99420.75
2022-09-17T13:15:52.743Z,99426.09
2022-09-17T13:18:59.284Z,99442.13
2022-09-17T13:21:55.626Z,99460.22
2022-09-17T13:24:47.395Z,99463.34
2022-09-17T13:27:38.672Z,99457.84
2022-09-17T13:30:27.351Z,99448.81
2022-09-17T13:33:54.529Z,99443.50
2022-09-17T13:36:49.752Z,99433.59
2022-09-17T13:39:41.812Z,99436.47
2022-09-17T13:42:33.070Z,99438.16
2022-09-17T13:45:23.280Z,99426.63
2022-09-17T13:48:13.529Z,99433.97
2022-09-17T13:51:46.037Z,99439.53
2022-09-17T13:54:39.929Z,99426.56
2022-09-17T13:57:29.130Z,99428.19
2022-09-17T14:00:49.638Z,99423.59
2022-09-17T14:03:53.631Z,99424.16
2022-09-17T14:06:54.506Z,99424.16
2022-09-17T14:09:57.178Z,99408.72
2022-09-17T14:13:01.602Z,99407.84
2022-09-17T14:16:05.391Z,99407.38
2022-09-17T14:19:03.581Z,99396.53
2022-09-17T14:22:00.805Z,99401.44
2022-09-17T14:24:52.439Z,99394.59
2022-09-17T14:27:52.005Z,99398.78
2022-09-17T14:30:40.529Z,99398.41
2022-09-17T14:33:32.042Z,99396.13
2022-09-17T14:36:21.962Z,99396.59
2022-09-17T14:39:14.452Z,99386.50
2022-09-17T14:42:03.169Z,99396.91
2022-09-17T14:44:59.819Z,99403.63
2022-09-17T14:47:48.384Z,99403.69
2022-09-17T14:50:37.316Z,99397.69
2022-09-17T14:53:25.980Z,99396.28
2022-09-17T14:56:16.911Z,99397.00
2022-09-17T14:59:20.208Z,99384.09
2022-09-17T15:02:34.618Z,99387.94
2022-09-17T15:05:26.644Z,99391.53
2022-09-17T15:08:17.359Z,99387.81
2022-09-17T15:11:12.039Z,99389.00
2022-09-17T15:14:04.321Z,99391.06
2022-09-17T15:16:56.322Z,99384.38
2022-09-17T15:19:50.230Z,99382.09
2022-09-17T15:22:40.862Z,99381.78
2022-09-17T15:25:32.328Z,99373.13
2022-09-17T15:28:29.699Z,99377.56
2022-09-17T15:31:20.769Z,99378.91
2022-09-17T15:34:12.322Z,99366.53
2022-09-17T15:37:10.725Z,99370.41
2022-09-17T15:39:59.280Z,99373.66
2022-09-17T15:42:51.312Z,99379.34
2022-09-17T15:45:42.178Z,99391.72
2022-09-17T15:48:39.617Z,99387.56
2022-09-17T15:51:31.393Z,99399.88
2022-09-17T15:54:30.984Z,99378.88
2022-09-17T15:57:19.420Z,99372.25
2022-09-17T16:00:20.115Z,99384.94
2022-09-17T16:04:02.962Z,99388.81
2022-09-17T16:07:16.630Z,99388.16
2022-09-17T16:10:07.061Z,99384.44
2022-09-17T16:12:55.449Z,99390.38
2022-09-17T16:15:44.034Z,99379.44
2022-09-17T16:18:32.545Z,99376.09
2022-09-17T16:21:21.410Z,99383.69
2022-09-17T16:24:09.779Z,99380.09
2022-09-17T16:26:59.555Z,99385.06
2022-09-17T16:29:48.439Z,99382.31
2022-09-17T16:32:36.854Z,99386.63
2022-09-17T16:35:27.443Z,99387.91
2022-09-17T16:38:15.852Z,99384.66
2022-09-17T16:41:06.430Z,99394.97
2022-09-17T16:43:57.345Z,99391.25
2022-09-17T16:46:46.054Z,99400.31
2022-09-17T16:49:34.556Z,99419.59
2022-09-17T16:52:24.006Z,99426.56
2022-09-17T16:55:14.464Z,99434.34
2022-09-17T16:58:02.995Z,99426.09
2022-09-17T17:00:52.823Z,99424.47
2022-09-17T17:03:41.757Z,99427.50
2022-09-17T17:06:30.357Z,99431.72
2022-09-17T17:09:18.921Z,99425.81
2022-09-17T17:12:09.141Z,99429.22
2022-09-17T17:14:57.675Z,99417.25
2022-09-17T17:17:47.548Z,99420.44
2022-09-17T17:20:37.313Z,99411.53
2022-09-17T17:23:25.790Z,99415.38
2022-09-17T17:26:14.428Z,99413.75
2022-09-17T17:29:03.551Z,99421.91
2022-09-17T17:31:52.119Z,99425.38
2022-09-17T17:34:42.042Z,99439.44
2022-09-17T17:37:30.720Z,99436.75
2022-09-17T17:40:19.231Z,99437.59
2022-09-17T17:43:07.721Z,99440.16
2022-09-17T17:45:56.127Z,99454.00
2022-09-17T17:48:45.317Z,99452.38
2022-09-17T17:51:36.240Z,99451.53
2022-09-17T17:54:25.191Z,99445.34
2022-09-17T17:57:13.761Z,99472.53
2022-09-17T18:00:04.071Z,99474.63
2022-09-17T18:02:52.785Z,99472.53
2022-09-17T18:05:41.444Z,99469.28
2022-09-17T18:08:31.213Z,99473.81
2022-09-17T18:11:19.756Z,99475.47
2022-09-17T18:14:08.179Z,99483.47
2022-09-17T18:16:56.688Z,99481.00
2022-09-17T18:19:45.116Z,99480.34
2022-09-17T18:22:33.819Z,99483.22
2022-09-17T18:25:23.655Z,99479.09
2022-09-17T18:28:12.109Z,99485.59
2022-09-17T18:31:06.205Z,99483.72
2022-09-17T18:33:57.614Z,99482.78
2022-09-17T18:36:50.993Z,99476.41
2022-09-17T18:42:51.045Z,99465.84
2022-09-17T18:45:40.020Z,99474.31
2022-09-17T18:48:32.046Z,99482.34
2022-09-17T18:51:22.894Z,99482.34
2022-09-17T18:54:12.907Z,99491.41
2022-09-17T18:57:01.423Z,99490.94
2022-09-17T18:59:51.275Z,99494.09
2022-09-17T19:02:39.940Z,99493.84
2022-09-17T19:05:28.464Z,99489.78
2022-09-17T19:08:16.907Z,99502.09
2022-09-17T19:11:06.156Z,99499.63
2022-09-17T19:13:59.641Z,99496.59
2022-09-17T19:16:49.404Z,99493.91
2022-09-17T19:19:37.827Z,99500.91
2022-09-17T19:22:26.354Z,99503.13
2022-09-17T19:25:14.934Z,99497.19
2022-09-17T19:28:07.523Z,99491.84
2022-09-17T19:30:55.928Z,99487.78
2022-09-17T19:33:46.633Z,99491.84
2022-09-17T19:36:35.194Z,99492.28
2022-09-17T19:39:23.672Z,99487.53
2022-09-17T19:42:12.098Z,99490.19
2022-09-17T19:45:00.535Z,99497.63
2022-09-17T19:47:49.013Z,99496.00
2022-09-17T19:50:39.118Z,99490.66
2022-09-17T19:53:27.567Z,99485.69
2022-09-17T19:56:17.520Z,99488.94
2022-09-17T19:59:05.968Z,99483.22
2022-09-17T20:01:54.445Z,99489.78
2022-09-17T20:04:42.913Z,99490.78
2022-09-17T20:07:33.735Z,99489.84
2022-09-17T20:10:22.189Z,99497.25
2022-09-17T20:13:10.836Z,99494.84
2022-09-17T20:16:05.031Z,99498.56
2022-09-17T20:18:53.477Z,99491.56
2022-09-17T20:21:42.080Z,99507.16
2022-09-17T20:24:31.870Z,99503.44
2022-09-17T20:27:20.299Z,99506.69
2022-09-17T20:30:09.757Z,99496.00
2022-09-17T20:32:58.264Z,99493.53
2022-09-17T20:35:46.661Z,99484.16
2022-09-17T20:41:45.341Z,99485.31
2022-09-17T20:44:33.796Z,99484.28
2022-09-17T20:47:22.255Z,99486.50
2022-09-17T20:50:10.866Z,99476.84
2022-09-17T20:52:59.313Z,99476.03
2022-09-17T20:55:55.473Z,99458.97
2022-09-17T20:58:48.877Z,99454.41
2022-09-17T21:01:38.192Z,99459.75
2022-09-17T21:04:27.874Z,99456.03
2022-09-17T21:07:16.502Z,99450.84
2022-09-17T21:10:05.358Z,99454.00
2022-09-17T21:12:53.930Z,99460.50
2022-09-17T21:15:48.970Z,99460.97
2022-09-17T21:18:39.825Z,99454.00
2022-09-17T21:21:28.860Z,99451.53
2022-09-17T21:24:17.730Z,99444.34
2022-09-17T21:27:07.278Z,99449.06
2022-09-17T21:29:55.792Z,99441.66
2022-09-17T21:32:45.573Z,99445.97
2022-09-17T21:35:34.806Z,99450.69
2022-09-17T21:38:23.252Z,99440.00
2022-09-17T21:41:13.291Z,99444.56
2022-09-17T21:44:01.974Z,99444.78
2022-09-17T21:46:56.712Z,99449.06
2022-09-17T21:49:46.608Z,99456.03
2022-09-17T21:52:35.917Z,99440.84
2022-09-17T21:55:25.409Z,99457.25
2022-09-17T21:58:14.091Z,99455.03
2022-09-17T22:01:06.838Z,99449.53
2022-09-17T22:03:57.528Z,99447.44
2022-09-17T22:06:48.051Z,99444.66
2022-09-17T22:09:36.510Z,99450.22
2022-09-17T22:12:24.997Z,99444.66
2022-09-17T22:15:13.353Z,99448.81
2022-09-17T22:18:04.284Z,99443.91
2022-09-17T22:20:52.991Z,99447.63
2022-09-17T22:23:42.867Z,99441.88
2022-09-17T22:26:33.319Z,99435.47
2022-09-17T22:29:22.923Z,99445.53
2022-09-17T22:32:11.317Z,99427.47
2022-09-17T22:34:59.788Z,99422.38
2022-09-17T22:37:48.300Z,99417.81
2022-09-17T22:40:38.590Z,99425.84
2022-09-17T22:43:28.099Z,99426.09
2022-09-17T22:46:21.078Z,99428.38
2022-09-17T22:49:10.921Z,99415.97
2022-09-17T22:52:00.319Z,99427.13
2022-09-17T22:54:48.769Z,99422.59
2022-09-17T22:57:38.625Z,99426.09
2022-09-17T23:00:27.088Z,99420.75
2022-09-17T23:03:15.663Z,99425.03
2022-09-17T23:06:05.754Z,99422.97
2022-09-17T23:08:55.624Z,99423.41
2022-09-17T23:11:46.599Z,99426.09
2022-09-17T23:14:36.521Z,99423.63
2022-09-17T23:17:29.290Z,99416.44
2022-09-17T23:20:17.969Z,99432.47
2022-09-17T23:23:06.659Z,99423.41
2022-09-17T23:25:55.627Z,99416.88
2022-09-17T23:28:44.299Z,99422.22
2022-09-17T23:31:35.684Z,99418.06
2022-09-17T23:34:24.264Z,99411.53
2022-09-17T23:37:12.705Z,99407.84
2022-09-17T23:40:01.423Z,99412.81
2022-09-17T23:42:49.894Z,99406.63
2022-09-17T23:45:38.657Z,99408.72
2022-09-17T23:48:28.498Z,99400.25
2022-09-17T23:51:19.794Z,99405.00
2022-09-17T23:54:08.411Z,99404.44
2022-09-17T23:56:56.891Z,99409.97
2022-09-17T23:59:45.381Z,99407.09
